sensor_id;sensor_type;location;lat;lon;timestamp;pressure;altitude;pressure_sealevel;temperature;humidity
35647;BME280;28680;45.642;13.756;2023-05-07T00:00:10;101204.03;;;19.32;100.00
35647;BME280;28680;45.642;13.756;2023-05-07T00:02:36;101205.03;;;19.39;100.00
35647;BME280;28680;45.642;13.756;2023-05-07T00:05:03;101204.88;;;19.32;100.00
35647;BME280;28680;45.642;13.756;2023-05-07T00:07:29;101207.69;;;19.31;100.00
35647;BME280;28680;45.642;13.756;2023-05-07T00:09:55;101201.38;;;19.32;100.00
35647;BME280;28680;45.642;13.756;2023-05-07T00:12:24;101202.34;;;19.22;100.00
35647;BME280;28680;45.642;13.756;2023-05-07T00:14:50;101208.22;;;19.34;100.00
35647;BME280;28680;45.642;13.756;2023-05-07T00:17:16;101204.84;;;19.24;100.00
35647;BME280;28680;45.642;13.756;2023-05-07T00:19:42;101195.72;;;19.26;100.00
35647;BME280;28680;45.642;13.756;2023-05-07T00:22:08;101195.41;;;19.13;100.00
35647;BME280;28680;45.642;13.756;2023-05-07T00:24:34;101192.72;;;19.13;100.00
35647;BME280;28680;45.642;13.756;2023-05-07T00:27:00;101184.41;;;19.08;100.00
35647;BME280;28680;45.642;13.756;2023-05-07T00:29:26;101188.25;;;19.05;100.00
35647;BME280;28680;45.642;13.756;2023-05-07T00:31:52;101189.22;;;19.04;100.00
35647;BME280;28680;45.642;13.756;2023-05-07T00:34:20;101180.06;;;19.07;100.00
35647;BME280;28680;45.642;13.756;2023-05-07T00:36:45;101179.59;;;19.12;100.00
35647;BME280;28680;45.642;13.756;2023-05-07T00:39:11;101179.09;;;19.08;100.00
35647;BME280;28680;45.642;13.756;2023-05-07T00:41:37;101180.41;;;19.20;100.00
35647;BME280;28680;45.642;13.756;2023-05-07T00:44:03;101185.06;;;19.10;100.00
35647;BME280;28680;45.642;13.756;2023-05-07T00:46:31;101179.09;;;19.00;100.00
35647;BME280;28680;45.642;13.756;2023-05-07T00:48:58;101185.91;;;18.94;100.00
35647;BME280;28680;45.642;13.756;2023-05-07T00:51:25;101179.56;;;18.87;100.00
35647;BME280;28680;45.642;13.756;2023-05-07T00:53:53;101174.09;;;19.05;100.00
35647;BME280;28680;45.642;13.756;2023-05-07T00:56:21;101175.41;;;19.01;100.00
35647;BME280;28680;45.642;13.756;2023-05-07T00:58:48;101170.59;;;18.96;100.00
35647;BME280;28680;45.642;13.756;2023-05-07T01:01:14;101173.91;;;18.90;100.00
35647;BME280;28680;45.642;13.756;2023-05-07T01:03:42;101173.59;;;18.85;100.00
35647;BME280;28680;45.642;13.756;2023-05-07T01:06:09;101180.19;;;18.81;100.00
35647;BME280;28680;45.642;13.756;2023-05-07T01:08:37;101170.19;;;18.75;100.00
35647;BME280;28680;45.642;13.756;2023-05-07T01:11:08;101164.88;;;18.75;100.00
35647;BME280;28680;45.642;13.756;2023-05-07T01:13:36;101166.72;;;18.74;100.00
35647;BME280;28680;45.642;13.756;2023-05-07T01:16:03;101160.22;;;18.68;100.00
35647;BME280;28680;45.642;13.756;2023-05-07T01:18:29;101157.03;;;18.65;100.00
35647;BME280;28680;45.642;13.756;2023-05-07T01:20:58;101154.38;;;18.65;100.00
35647;BME280;28680;45.642;13.756;2023-05-07T01:23:26;101162.69;;;18.62;100.00
35647;BME280;28680;45.642;13.756;2023-05-07T01:25:54;101161.34;;;18.58;100.00
35647;BME280;28680;45.642;13.756;2023-05-07T01:28:20;101155.03;;;18.59;100.00
35647;BME280;28680;45.642;13.756;2023-05-07T01:30:51;101161.03;;;18.61;100.00
35647;BME280;28680;45.642;13.756;2023-05-07T01:33:21;101157.88;;;18.57;100.00
35647;BME280;28680;45.642;13.756;2023-05-07T01:35:51;101156.69;;;18.60;100.00
35647;BME280;28680;45.642;13.756;2023-05-07T01:38:19;101163.84;;;18.59;100.00
35647;BME280;28680;45.642;13.756;2023-05-07T01:40:46;101164.16;;;18.56;100.00
35647;BME280;28680;45.642;13.756;2023-05-07T01:43:12;101163.50;;;18.54;100.00
35647;BME280;28680;45.642;13.756;2023-05-07T01:45:38;101165.16;;;18.55;100.00
35647;BME280;28680;45.642;13.756;2023-05-07T01:48:07;101168.81;;;18.54;100.00
35647;BME280;28680;45.642;13.756;2023-05-07T01:50:35;101161.34;;;18.58;100.00
35647;BME280;28680;45.642;13.756;2023-05-07T01:53:01;101152.22;;;18.60;100.00
35647;BME280;28680;45.642;13.756;2023-05-07T01:55:28;101145.91;;;18.61;100.00
35647;BME280;28680;45.642;13.756;2023-05-07T01:57:53;101147.59;;;18.62;100.00
35647;BME280;28680;45.642;13.756;2023-05-07T02:00:20;101148.09;;;18.66;100.00
35647;BME280;28680;45.642;13.756;2023-05-07T02:02:46;101141.75;;;18.67;100.00
35647;BME280;28680;45.642;13.756;2023-05-07T02:05:12;101133.44;;;18.62;100.00
35647;BME280;28680;45.642;13.756;2023-05-07T02:07:37;101130.47;;;18.65;100.00
35647;BME280;28680;45.642;13.756;2023-05-07T02:10:04;101130.97;;;18.68;100.00
35647;BME280;28680;45.642;13.756;2023-05-07T02:12:30;101130.16;;;18.68;100.00
35647;BME280;28680;45.642;13.756;2023-05-07T02:14:56;101129.13;;;18.69;100.00
35647;BME280;28680;45.642;13.756;2023-05-07T02:17:22;101127.81;;;18.65;100.00
35647;BME280;28680;45.642;13.756;2023-05-07T02:19:48;101131.78;;;18.61;100.00
35647;BME280;28680;45.642;13.756;2023-05-07T02:22:13;101129.78;;;18.63;100.00
35647;BME280;28680;45.642;13.756;2023-05-07T02:24:39;101128.97;;;18.62;100.00
35647;BME280;28680;45.642;13.756;2023-05-07T02:27:05;101128.13;;;18.54;100.00
35647;BME280;28680;45.642;13.756;2023-05-07T02:29:31;101128.94;;;18.46;100.00
35647;BME280;28680;45.642;13.756;2023-05-07T02:31:57;101128.06;;;18.37;100.00
35647;BME280;28680;45.642;13.756;2023-05-07T02:34:23;101130.25;;;18.34;100.00
35647;BME280;28680;45.642;13.756;2023-05-07T02:36:48;101126.72;;;18.33;100.00
35647;BME280;28680;45.642;13.756;2023-05-07T02:39:14;101140.34;;;18.30;100.00
35647;BME280;28680;45.642;13.756;2023-05-07T02:41:41;101137.34;;;18.25;100.00
35647;BME280;28680;45.642;13.756;2023-05-07T02:44:06;101141.47;;;18.19;100.00
35647;BME280;28680;45.642;13.756;2023-05-07T02:46:32;101141.91;;;18.06;100.00
35647;BME280;28680;45.642;13.756;2023-05-07T02:48:58;101146.97;;;17.91;100.00
35647;BME280;28680;45.642;13.756;2023-05-07T02:51:26;101149.97;;;17.88;100.00
35647;BME280;28680;45.642;13.756;2023-05-07T02:53:52;101146.91;;;17.83;100.00
35647;BME280;28680;45.642;13.756;2023-05-07T02:56:18;101136.44;;;17.82;100.00
35647;BME280;28680;45.642;13.756;2023-05-07T02:58:44;101150.66;;;17.90;100.00
35647;BME280;28680;45.642;13.756;2023-05-07T03:01:10;101141.34;;;17.86;100.00
35647;BME280;28680;45.642;13.756;2023-05-07T03:03:36;101144.81;;;17.87;100.00
35647;BME280;28680;45.642;13.756;2023-05-07T03:06:02;101149.78;;;17.90;100.00
35647;BME280;28680;45.642;13.756;2023-05-07T03:08:28;101147.50;;;17.95;100.00
35647;BME280;28680;45.642;13.756;2023-05-07T03:10:54;101142.72;;;17.99;100.00
35647;BME280;28680;45.642;13.756;2023-05-07T03:13:21;101137.91;;;18.02;100.00
35647;BME280;28680;45.642;13.756;2023-05-07T03:15:47;101137.59;;;18.05;100.00
35647;BME280;28680;45.642;13.756;2023-05-07T03:18:13;101140.94;;;18.07;100.00
35647;BME280;28680;45.642;13.756;2023-05-07T03:20:39;101141.59;;;18.09;100.00
35647;BME280;28680;45.642;13.756;2023-05-07T03:23:05;101146.53;;;18.04;100.00
35647;BME280;28680;45.642;13.756;2023-05-07T03:25:32;101140.06;;;18.07;100.00
35647;BME280;28680;45.642;13.756;2023-05-07T03:27:58;101145.50;;;17.97;100.00
35647;BME280;28680;45.642;13.756;2023-05-07T03:30:24;101151.47;;;17.91;100.00
35647;BME280;28680;45.642;13.756;2023-05-07T03:32:50;101150.13;;;17.87;100.00
35647;BME280;28680;45.642;13.756;2023-05-07T03:35:16;101158.09;;;17.87;100.00
35647;BME280;28680;45.642;13.756;2023-05-07T03:37:42;101156.03;;;17.81;100.00
35647;BME280;28680;45.642;13.756;2023-05-07T03:40:09;101157.84;;;17.80;100.00
35647;BME280;28680;45.642;13.756;2023-05-07T03:42:35;101165.66;;;17.82;100.00
35647;BME280;28680;45.642;13.756;2023-05-07T03:45:01;101165.97;;;17.79;100.00
35647;BME280;28680;45.642;13.756;2023-05-07T03:47:27;101163.91;;;17.90;100.00
35647;BME280;28680;45.642;13.756;2023-05-07T03:49:53;101165.91;;;17.88;100.00
35647;BME280;28680;45.642;13.756;2023-05-07T03:52:20;101163.81;;;17.82;100.00
35647;BME280;28680;45.642;13.756;2023-05-07T03:54:50;101164.31;;;17.78;100.00
35647;BME280;28680;45.642;13.756;2023-05-07T03:57:16;101157.50;;;17.75;100.00
35647;BME280;28680;45.642;13.756;2023-05-07T03:59:41;101159.31;;;17.74;100.00
35647;BME280;28680;45.642;13.756;2023-05-07T04:02:07;101162.59;;;17.95;100.00
35647;BME280;28680;45.642;13.756;2023-05-07T04:04:33;101167.19;;;17.84;100.00
35647;BME280;28680;45.642;13.756;2023-05-07T04:06:59;101171.97;;;17.81;100.00
35647;BME280;28680;45.642;13.756;2023-05-07T04:09:26;101168.78;;;17.77;100.00
35647;BME280;28680;45.642;13.756;2023-05-07T04:11:51;101167.94;;;17.77;100.00
35647;BME280;28680;45.642;13.756;2023-05-07T04:14:17;101182.38;;;17.74;100.00
35647;BME280;28680;45.642;13.756;2023-05-07T04:16:43;101176.75;;;17.77;100.00
35647;BME280;28680;45.642;13.756;2023-05-07T04:19:09;101183.41;;;17.81;100.00
35647;BME280;28680;45.642;13.756;2023-05-07T04:21:35;101172.94;;;17.80;100.00
35647;BME280;28680;45.642;13.756;2023-05-07T04:24:03;101170.78;;;17.75;100.00
35647;BME280;28680;45.642;13.756;2023-05-07T04:26:29;101171.75;;;17.74;100.00
35647;BME280;28680;45.642;13.756;2023-05-07T04:28:54;101171.44;;;17.77;100.00
35647;BME280;28680;45.642;13.756;2023-05-07T04:31:20;101174.94;;;17.78;100.00
35647;BME280;28680;45.642;13.756;2023-05-07T04:33:46;101178.78;;;17.83;100.00
35647;BME280;28680;45.642;13.756;2023-05-07T04:36:12;101190.56;;;17.81;100.00
35647;BME280;28680;45.642;13.756;2023-05-07T04:38:38;101181.97;;;17.87;100.00
35647;BME280;28680;45.642;13.756;2023-05-07T04:41:06;101183.97;;;17.85;100.00
35647;BME280;28680;45.642;13.756;2023-05-07T04:43:32;101189.94;;;17.87;100.00
35647;BME280;28680;45.642;13.756;2023-05-07T04:45:58;101185.00;;;17.92;100.00
35647;BME280;28680;45.642;13.756;2023-05-07T04:48:24;101189.16;;;17.95;100.00
35647;BME280;28680;45.642;13.756;2023-05-07T04:50:50;101182.69;;;17.97;100.00
35647;BME280;28680;45.642;13.756;2023-05-07T04:53:17;101194.31;;;17.96;100.00
35647;BME280;28680;45.642;13.756;2023-05-07T04:55:44;101201.28;;;17.97;100.00
35647;BME280;28680;45.642;13.756;2023-05-07T04:58:11;101202.97;;;17.98;100.00
35647;BME280;28680;45.642;13.756;2023-05-07T05:00:38;101206.44;;;17.99;100.00
35647;BME280;28680;45.642;13.756;2023-05-07T05:03:06;101208.94;;;18.00;100.00
35647;BME280;28680;45.642;13.756;2023-05-07T05:05:32;101208.94;;;18.00;100.00
35647;BME280;28680;45.642;13.756;2023-05-07T05:07:58;101213.44;;;18.00;100.00
35647;BME280;28680;45.642;13.756;2023-05-07T05:10:24;101215.75;;;18.03;100.00
35647;BME280;28680;45.642;13.756;2023-05-07T05:12:51;101213.78;;;18.05;100.00
35647;BME280;28680;45.642;13.756;2023-05-07T05:15:16;101222.59;;;18.05;100.00
35647;BME280;28680;45.642;13.756;2023-05-07T05:17:42;101215.31;;;18.07;100.00
35647;BME280;28680;45.642;13.756;2023-05-07T05:20:08;101220.63;;;18.07;100.00
35647;BME280;28680;45.642;13.756;2023-05-07T05:22:36;101215.50;;;18.14;100.00
35647;BME280;28680;45.642;13.756;2023-05-07T05:25:02;101218.81;;;18.16;100.00
35647;BME280;28680;45.642;13.756;2023-05-07T05:27:29;101209.53;;;18.20;100.00
35647;BME280;28680;45.642;13.756;2023-05-07T05:29:55;101212.41;;;18.27;100.00
35647;BME280;28680;45.642;13.756;2023-05-07T05:32:21;101212.41;;;18.27;100.00
35647;BME280;28680;45.642;13.756;2023-05-07T05:34:48;101214.41;;;18.33;100.00
35647;BME280;28680;45.642;13.756;2023-05-07T05:37:14;101218.75;;;18.34;100.00
35647;BME280;28680;45.642;13.756;2023-05-07T05:39:39;101225.09;;;18.41;100.00
35647;BME280;28680;45.642;13.756;2023-05-07T05:42:05;101218.09;;;18.40;100.00
35647;BME280;28680;45.642;13.756;2023-05-07T05:44:31;101215.47;;;18.48;100.00
35647;BME280;28680;45.642;13.756;2023-05-07T05:46:57;101213.84;;;18.56;100.00
35647;BME280;28680;45.642;13.756;2023-05-07T05:49:25;101215.84;;;18.62;100.00
35647;BME280;28680;45.642;13.756;2023-05-07T05:51:51;101209.75;;;18.69;100.00
35647;BME280;28680;45.642;13.756;2023-05-07T05:54:17;101210.41;;;18.72;100.00
35647;BME280;28680;45.642;13.756;2023-05-07T05:56:42;101204.91;;;18.73;100.00
35647;BME280;28680;45.642;13.756;2023-05-07T05:59:08;101205.97;;;18.80;100.00
35647;BME280;28680;45.642;13.756;2023-05-07T06:01:34;101211.47;;;18.87;100.00
35647;BME280;28680;45.642;13.756;2023-05-07T06:04:00;101216.28;;;18.92;100.00
35647;BME280;28680;45.642;13.756;2023-05-07T06:06:26;101217.81;;;18.94;100.00
35647;BME280;28680;45.642;13.756;2023-05-07T06:08:53;101208.66;;;18.97;100.00
35647;BME280;28680;45.642;13.756;2023-05-07T06:11:19;101217.81;;;19.02;100.00
35647;BME280;28680;45.642;13.756;2023-05-07T06:13:45;101215.47;;;18.99;100.00
35647;BME280;28680;45.642;13.756;2023-05-07T06:16:11;101213.47;;;19.01;100.00
35647;BME280;28680;45.642;13.756;2023-05-07T06:18:37;101224.47;;;19.15;100.00
35647;BME280;28680;45.642;13.756;2023-05-07T06:21:03;101220.13;;;18.97;100.00
35647;BME280;28680;45.642;13.756;2023-05-07T06:23:29;101225.44;;;18.97;100.00
35647;BME280;28680;45.642;13.756;2023-05-07T06:25:55;101226.47;;;19.04;100.00
35647;BME280;28680;45.642;13.756;2023-05-07T06:28:21;101223.81;;;19.04;100.00
35647;BME280;28680;45.642;13.756;2023-05-07T06:30:47;101225.47;;;19.14;100.00
35647;BME280;28680;45.642;13.756;2023-05-07T06:33:15;101231.47;;;19.16;100.00
35647;BME280;28680;45.642;13.756;2023-05-07T06:35:41;101229.66;;;19.33;100.00
35647;BME280;28680;45.642;13.756;2023-05-07T06:38:07;101225.66;;;19.37;100.00
35647;BME280;28680;45.642;13.756;2023-05-07T06:40:33;101228.66;;;19.50;100.00
35647;BME280;28680;45.642;13.756;2023-05-07T06:42:59;101220.31;;;19.61;100.00
35647;BME280;28680;45.642;13.756;2023-05-07T06:45:25;101213.81;;;19.64;100.00
35647;BME280;28680;45.642;13.756;2023-05-07T06:47:50;101215.84;;;19.70;100.00
35647;BME280;28680;45.642;13.756;2023-05-07T06:50:16;101225.19;;;19.74;100.00
35647;BME280;28680;45.642;13.756;2023-05-07T06:52:42;101220.00;;;19.73;100.00
35647;BME280;28680;45.642;13.756;2023-05-07T06:55:09;101220.34;;;19.78;100.00
35647;BME280;28680;45.642;13.756;2023-05-07T06:57:35;101224.31;;;19.90;100.00
35647;BME280;28680;45.642;13.756;2023-05-07T07:00:00;101221.84;;;19.89;100.00
35647;BME280;28680;45.642;13.756;2023-05-07T07:02:26;101227.44;;;20.10;100.00
35647;BME280;28680;45.642;13.756;2023-05-07T07:04:52;101225.94;;;20.16;100.00
35647;BME280;28680;45.642;13.756;2023-05-07T07:07:18;101220.91;;;20.21;100.00
35647;BME280;28680;45.642;13.756;2023-05-07T07:09:44;101227.06;;;20.21;100.00
35647;BME280;28680;45.642;13.756;2023-05-07T07:12:10;101223.38;;;20.31;100.00
35647;BME280;28680;45.642;13.756;2023-05-07T07:14:36;101216.47;;;20.44;100.00
35647;BME280;28680;45.642;13.756;2023-05-07T07:17:02;101217.97;;;20.47;100.00
35647;BME280;28680;45.642;13.756;2023-05-07T07:19:28;101214.63;;;20.53;100.00
35647;BME280;28680;45.642;13.756;2023-05-07T07:21:54;101218.56;;;20.66;100.00
35647;BME280;28680;45.642;13.756;2023-05-07T07:24:20;101221.38;;;20.72;100.00
35647;BME280;28680;45.642;13.756;2023-05-07T07:26:47;101225.84;;;20.80;100.00
35647;BME280;28680;45.642;13.756;2023-05-07T07:29:13;101216.63;;;20.91;100.00
35647;BME280;28680;45.642;13.756;2023-05-07T07:31:39;101226.50;;;20.82;100.00
35647;BME280;28680;45.642;13.756;2023-05-07T07:34:05;101220.09;;;20.91;100.00
35647;BME280;28680;45.642;13.756;2023-05-07T07:36:31;101213.06;;;20.98;100.00
35647;BME280;28680;45.642;13.756;2023-05-07T07:38:57;101225.13;;;21.09;100.00
35647;BME280;28680;45.642;13.756;2023-05-07T07:41:23;101222.59;;;20.93;100.00
35647;BME280;28680;45.642;13.756;2023-05-07T07:43:49;101229.28;;;20.89;100.00
35647;BME280;28680;45.642;13.756;2023-05-07T07:46:14;101224.50;;;21.07;100.00
35647;BME280;28680;45.642;13.756;2023-05-07T07:48:40;101229.66;;;21.32;100.00
35647;BME280;28680;45.642;13.756;2023-05-07T07:51:06;101223.56;;;21.46;100.00
35647;BME280;28680;45.642;13.756;2023-05-07T07:53:32;101222.84;;;21.52;100.00
35647;BME280;28680;45.642;13.756;2023-05-07T07:55:58;101218.53;;;21.43;100.00
35647;BME280;28680;45.642;13.756;2023-05-07T07:58:24;101225.91;;;21.64;100.00
35647;BME280;28680;45.642;13.756;2023-05-07T08:00:50;101234.03;;;21.71;100.00
35647;BME280;28680;45.642;13.756;2023-05-07T08:03:16;101233.69;;;21.74;100.00
35647;BME280;28680;45.642;13.756;2023-05-07T08:05:43;101237.25;;;21.81;100.00
35647;BME280;28680;45.642;13.756;2023-05-07T08:08:09;101238.84;;;21.90;100.00
35647;BME280;28680;45.642;13.756;2023-05-07T08:10:35;101238.03;;;21.90;100.00
35647;BME280;28680;45.642;13.756;2023-05-07T08:13:03;101243.09;;;21.99;100.00
35647;BME280;28680;45.642;13.756;2023-05-07T08:15:30;101244.19;;;22.05;100.00
35647;BME280;28680;45.642;13.756;2023-05-07T08:17:57;101244.84;;;22.07;100.00
35647;BME280;28680;45.642;13.756;2023-05-07T08:20:24;101245.78;;;22.14;100.00
35647;BME280;28680;45.642;13.756;2023-05-07T08:22:50;101246.97;;;22.12;100.00
35647;BME280;28680;45.642;13.756;2023-05-07T08:25:16;101247.06;;;22.18;100.00
35647;BME280;28680;45.642;13.756;2023-05-07T08:27:42;101247.81;;;22.12;100.00
35647;BME280;28680;45.642;13.756;2023-05-07T08:30:10;101247.84;;;22.27;100.00
35647;BME280;28680;45.642;13.756;2023-05-07T08:32:36;101243.22;;;22.36;100.00
35647;BME280;28680;45.642;13.756;2023-05-07T08:35:02;101253.09;;;22.35;100.00
35647;BME280;28680;45.642;13.756;2023-05-07T08:37:28;101259.34;;;22.43;100.00
35647;BME280;28680;45.642;13.756;2023-05-07T08:39:54;101263.50;;;22.45;100.00
35647;BME280;28680;45.642;13.756;2023-05-07T08:42:21;101257.31;;;22.60;100.00
35647;BME280;28680;45.642;13.756;2023-05-07T08:44:51;101254.59;;;22.74;100.00
35647;BME280;28680;45.642;13.756;2023-05-07T08:47:22;101261.69;;;22.82;100.00
35647;BME280;28680;45.642;13.756;2023-05-07T08:49:48;101253.94;;;22.87;100.00
35647;BME280;28680;45.642;13.756;2023-05-07T08:52:16;101257.88;;;22.91;100.00
35647;BME280;28680;45.642;13.756;2023-05-07T08:54:42;101253.03;;;23.02;100.00
35647;BME280;28680;45.642;13.756;2023-05-07T08:57:08;101252.44;;;23.21;100.00
35647;BME280;28680;45.642;13.756;2023-05-07T08:59:34;101248.44;;;23.32;100.00
35647;BME280;28680;45.642;13.756;2023-05-07T09:02:01;101256.31;;;23.40;100.00
35647;BME280;28680;45.642;13.756;2023-05-07T09:04:27;101250.91;;;23.55;100.00
35647;BME280;28680;45.642;13.756;2023-05-07T09:06:53;101250.97;;;23.62;100.00
35647;BME280;28680;45.642;13.756;2023-05-07T09:09:19;101252.84;;;23.68;100.00
35647;BME280;28680;45.642;13.756;2023-05-07T09:11:47;101254.88;;;23.59;100.00
35647;BME280;28680;45.642;13.756;2023-05-07T09:14:13;101256.91;;;23.79;100.00
35647;BME280;28680;45.642;13.756;2023-05-07T09:16:38;101251.88;;;23.97;100.00
35647;BME280;28680;45.642;13.756;2023-05-07T09:19:04;101255.09;;;23.86;100.00
35647;BME280;28680;45.642;13.756;2023-05-07T09:21:30;101257.00;;;23.99;100.00
35647;BME280;28680;45.642;13.756;2023-05-07T09:23:57;101257.75;;;24.14;100.00
35647;BME280;28680;45.642;13.756;2023-05-07T09:26:24;101253.72;;;24.31;100.00
35647;BME280;28680;45.642;13.756;2023-05-07T09:28:51;101257.28;;;24.45;100.00
35647;BME280;28680;45.642;13.756;2023-05-07T09:31:17;101255.03;;;24.49;100.00
35647;BME280;28680;45.642;13.756;2023-05-07T09:33:43;101250.13;;;24.52;100.00
35647;BME280;28680;45.642;13.756;2023-05-07T09:36:10;101252.91;;;24.73;100.00
35647;BME280;28680;45.642;13.756;2023-05-07T09:38:37;101251.47;;;24.83;100.00
35647;BME280;28680;45.642;13.756;2023-05-07T09:41:08;101247.56;;;24.93;100.00
35647;BME280;28680;45.642;13.756;2023-05-07T09:43:36;101247.19;;;25.02;100.00
35647;BME280;28680;45.642;13.756;2023-05-07T09:46:14;101247.41;;;25.07;100.00
35647;BME280;28680;45.642;13.756;2023-05-07T09:48:43;101252.16;;;25.19;100.00
35647;BME280;28680;45.642;13.756;2023-05-07T09:54:28;101247.47;;;25.27;100.00
35647;BME280;28680;45.642;13.756;2023-05-07T09:56:55;101249.72;;;25.31;100.00
35647;BME280;28680;45.642;13.756;2023-05-07T09:59:22;101250.38;;;25.39;100.00
35647;BME280;28680;45.642;13.756;2023-05-07T10:01:49;101248.69;;;25.52;100.00
35647;BME280;28680;45.642;13.756;2023-05-07T10:04:18;101252.25;;;25.52;100.00
35647;BME280;28680;45.642;13.756;2023-05-07T10:06:46;101254.50;;;25.68;100.00
35647;BME280;28680;45.642;13.756;2023-05-07T10:09:12;101254.47;;;25.82;100.00
35647;BME280;28680;45.642;13.756;2023-05-07T10:11:42;101256.97;;;25.90;100.00
35647;BME280;28680;45.642;13.756;2023-05-07T10:14:09;101257.78;;;25.91;100.00
35647;BME280;28680;45.642;13.756;2023-05-07T10:16:36;101248.50;;;26.00;100.00
35647;BME280;28680;45.642;13.756;2023-05-07T10:19:04;101237.69;;;26.06;100.00
35647;BME280;28680;45.642;13.756;2023-05-07T10:21:31;101246.19;;;26.17;100.00
35647;BME280;28680;45.642;13.756;2023-05-07T10:26:36;101249.03;;;26.35;100.00
35647;BME280;28680;45.642;13.756;2023-05-07T10:34:40;101249.31;;;26.59;100.00
35647;BME280;28680;45.642;13.756;2023-05-07T10:37:09;101248.09;;;26.61;100.00
35647;BME280;28680;45.642;13.756;2023-05-07T10:39:37;101244.56;;;26.68;100.00
35647;BME280;28680;45.642;13.756;2023-05-07T10:42:14;101243.03;;;26.78;100.00
35647;BME280;28680;45.642;13.756;2023-05-07T10:44:40;101236.16;;;26.89;100.00
35647;BME280;28680;45.642;13.756;2023-05-07T10:47:15;101240.84;;;27.00;100.00
35647;BME280;28680;45.642;13.756;2023-05-07T10:52:21;101244.53;;;27.06;100.00
35647;BME280;28680;45.642;13.756;2023-05-07T10:54:47;101239.06;;;27.19;100.00
35647;BME280;28680;45.642;13.756;2023-05-07T10:57:35;101233.94;;;27.43;100.00
35647;BME280;28680;45.642;13.756;2023-05-07T11:00:03;101237.63;;;27.49;100.00
35647;BME280;28680;45.642;13.756;2023-05-07T11:05:30;101241.78;;;27.70;100.00
35647;BME280;28680;45.642;13.756;2023-05-07T11:08:04;101238.31;;;27.63;100.00
35647;BME280;28680;45.642;13.756;2023-05-07T11:10:52;101231.81;;;27.70;100.00
35647;BME280;28680;45.642;13.756;2023-05-07T11:13:45;101233.09;;;27.86;100.00
35647;BME280;28680;45.642;13.756;2023-05-07T11:16:22;101232.50;;;27.91;100.00
35647;BME280;28680;45.642;13.756;2023-05-07T11:18:54;101234.66;;;28.00;100.00
35647;BME280;28680;45.642;13.756;2023-05-07T11:24:02;101232.41;;;28.16;100.00
35647;BME280;28680;45.642;13.756;2023-05-07T11:26:41;101233.00;;;28.18;100.00
35647;BME280;28680;45.642;13.756;2023-05-07T11:29:16;101229.06;;;28.21;100.00
35647;BME280;28680;45.642;13.756;2023-05-07T11:31:42;101226.09;;;28.22;100.00
35647;BME280;28680;45.642;13.756;2023-05-07T11:34:08;101228.41;;;28.37;100.00
35647;BME280;28680;45.642;13.756;2023-05-07T11:36:41;101220.63;;;28.47;100.00
35647;BME280;28680;45.642;13.756;2023-05-07T11:39:30;101230.03;;;28.75;100.00
35647;BME280;28680;45.642;13.756;2023-05-07T11:42:01;101225.50;;;28.57;100.00
35647;BME280;28680;45.642;13.756;2023-05-07T11:44:44;101230.41;;;28.78;98.07
35647;BME280;28680;45.642;13.756;2023-05-07T11:47:17;101232.28;;;28.78;100.00
35647;BME280;28680;45.642;13.756;2023-05-07T11:49:43;101238.72;;;28.77;100.00
35647;BME280;28680;45.642;13.756;2023-05-07T11:52:09;101235.06;;;28.71;100.00
35647;BME280;28680;45.642;13.756;2023-05-07T11:54:37;101228.84;;;28.71;100.00
35647;BME280;28680;45.642;13.756;2023-05-07T11:57:03;101230.47;;;28.42;100.00
35647;BME280;28680;45.642;13.756;2023-05-07T11:59:29;101226.19;;;28.34;100.00
35647;BME280;28680;45.642;13.756;2023-05-07T12:01:57;101227.88;;;28.47;100.00
35647;BME280;28680;45.642;13.756;2023-05-07T12:04:24;101227.66;;;28.30;100.00
35647;BME280;28680;45.642;13.756;2023-05-07T12:06:54;101228.31;;;28.13;100.00
35647;BME280;28680;45.642;13.756;2023-05-07T12:09:21;101229.44;;;28.06;100.00
35647;BME280;28680;45.642;13.756;2023-05-07T12:11:47;101227.47;;;27.94;100.00
35647;BME280;28680;45.642;13.756;2023-05-07T12:14:13;101233.47;;;28.15;100.00
35647;BME280;28680;45.642;13.756;2023-05-07T12:16:41;101228.97;;;28.27;100.00
35647;BME280;28680;45.642;13.756;2023-05-07T12:19:09;101234.28;;;28.34;100.00
35647;BME280;28680;45.642;13.756;2023-05-07T12:21:38;101233.22;;;28.72;94.77
35647;BME280;28680;45.642;13.756;2023-05-07T12:24:05;101231.34;;;28.84;96.39
35647;BME280;28680;45.642;13.756;2023-05-07T12:26:38;101229.22;;;28.74;100.00
35647;BME280;28680;45.642;13.756;2023-05-07T12:29:06;101232.09;;;28.43;100.00
35647;BME280;28680;45.642;13.756;2023-05-07T12:31:32;101240.97;;;28.80;100.00
35647;BME280;28680;45.642;13.756;2023-05-07T12:33:58;101230.94;;;29.11;100.00
35647;BME280;28680;45.642;13.756;2023-05-07T12:36:24;101222.47;;;29.07;100.00
35647;BME280;28680;45.642;13.756;2023-05-07T12:38:51;101229.38;;;28.91;100.00
35647;BME280;28680;45.642;13.756;2023-05-07T12:41:17;101226.81;;;28.96;96.54
35647;BME280;28680;45.642;13.756;2023-05-07T12:43:46;101228.19;;;29.18;92.60
35647;BME280;28680;45.642;13.756;2023-05-07T12:46:12;101231.84;;;29.35;93.10
35647;BME280;28680;45.642;13.756;2023-05-07T12:48:48;101220.81;;;29.37;96.96